Time;durP1;ratioP1;P1;durP2;ratioP2;P2;SDS_P1;SDS_P2;PMS_P1;PMS_P2;Temp;Humidity;BMP_temperature;BMP_pressure;BME280_temperature;BME280_humidity;BME280_pressure;Samples;Min_cycle;Max_cycle;Signal;HPM_P1;HPM_P2
2022/03/26 00:01:36;;;;;;;32.35;22.45;;;;;;;2.18;66.89;101071.17;1671869;85;21082;-72
2022/03/26 00:04:04;;;;;;;32.55;21.42;;;;;;;2.17;66.87;101066.38;1680711;84;21066;-72
2022/03/26 00:06:32;;;;;;;32.88;22.32;;;;;;;2.17;66.79;101066.38;1658616;85;21269;-73
2022/03/26 00:08:59;;;;;;;32.13;23.12;;;;;;;2.16;66.81;101061.31;1657639;85;21163;-73
2022/03/26 00:11:28;;;;;;;31.33;22.22;;;;;;;2.15;66.74;101063.14;1659936;86;21118;-73
2022/03/26 00:13:55;;;;;;;34.10;22.67;;;;;;;2.16;66.74;101060.00;1659502;85;21063;-74
2022/03/26 00:16:24;;;;;;;34.27;22.75;;;;;;;2.16;66.72;101057.36;1636020;86;21040;-74
2022/03/26 00:18:52;;;;;;;33.67;23.35;;;;;;;2.17;66.71;101052.39;1658070;85;21527;-74
2022/03/26 00:21:21;;;;;;;34.03;23.00;;;;;;;2.19;66.65;101050.39;1669876;85;21510;-74
2022/03/26 00:23:49;;;;;;;35.60;23.25;;;;;;;2.19;66.57;101045.94;1669530;85;21594;-74
2022/03/26 00:26:17;;;;;;;34.43;23.67;;;;;;;2.20;66.53;101042.80;1687990;83;21474;-74
2022/03/26 00:28:46;;;;;;;33.13;23.27;;;;;;;2.20;66.45;101044.11;1695916;83;21581;-74
2022/03/26 00:31:14;;;;;;;38.98;23.35;;;;;;;2.20;66.34;101040.97;1692938;83;21117;-73
2022/03/26 00:33:42;;;;;;;32.28;23.47;;;;;;;2.18;66.29;101033.77;1703605;83;21972;-74
2022/03/26 00:36:10;;;;;;;35.88;23.98;;;;;;;2.17;66.25;101034.75;1707625;82;21176;-74
2022/03/26 00:38:37;;;;;;;39.08;24.43;;;;;;;2.17;66.28;101030.80;1689911;83;21044;-74
2022/03/26 00:41:05;;;;;;;44.70;24.65;;;;;;;2.19;66.40;101030.63;1693189;83;21347;-74
2022/03/26 00:43:33;;;;;;;37.28;24.02;;;;;;;2.24;66.54;101033.52;1687820;83;21130;-74
2022/03/26 00:46:00;;;;;;;37.58;23.62;;;;;;;2.29;66.64;101034.56;1695972;83;21908;-72
2022/03/26 00:48:27;;;;;;;33.33;22.85;;;;;;;2.33;66.66;101024.45;1692065;83;21066;-73
2022/03/26 00:50:54;;;;;;;37.00;23.60;;;;;;;2.38;66.67;101023.89;1699375;83;21184;-74
2022/03/26 00:53:22;;;;;;;32.35;22.50;;;;;;;2.42;66.63;101025.13;1691417;83;21062;-75
2022/03/26 00:55:50;;;;;;;33.80;22.62;;;;;;;2.43;66.56;101020.97;1696749;83;21042;-74
2022/03/26 00:58:17;;;;;;;33.05;22.58;;;;;;;2.44;66.56;101013.40;1691500;83;21232;-74
2022/03/26 01:00:45;;;;;;;33.10;23.05;;;;;;;2.44;66.57;101014.72;1692174;83;21031;-73
2022/03/26 01:03:12;;;;;;;36.17;22.93;;;;;;;2.45;66.51;101013.70;1684150;83;21070;-72
2022/03/26 01:05:39;;;;;;;34.35;23.07;;;;;;;2.43;66.49;101013.57;1689961;84;21047;-73
2022/03/26 01:08:07;;;;;;;37.75;23.65;;;;;;;2.40;66.54;101012.64;1691176;83;21628;-73
2022/03/26 01:10:35;;;;;;;35.95;23.62;;;;;;;2.39;66.54;101013.14;1695583;83;21014;-73
2022/03/26 01:13:03;;;;;;;33.38;21.40;;;;;;;2.39;66.50;101011.83;1691488;83;21070;-74
2022/03/26 01:15:31;;;;;;;32.55;22.90;;;;;;;2.41;66.44;101011.65;1689025;83;21050;-73
2022/03/26 01:17:58;;;;;;;32.88;21.70;;;;;;;2.39;66.35;101005.74;1680693;83;21059;-73
2022/03/26 01:20:26;;;;;;;33.53;22.87;;;;;;;2.36;66.30;101005.62;1709782;83;21082;-71
2022/03/26 01:22:53;;;;;;;32.35;23.05;;;;;;;2.29;66.25;101001.61;1695138;83;21468;-73
2022/03/26 01:25:21;;;;;;;32.53;23.07;;;;;;;2.24;66.24;101003.22;1692786;83;21113;-73
2022/03/26 01:27:48;;;;;;;35.55;23.30;;;;;;;2.22;66.24;100997.31;1688185;83;21641;-73
2022/03/26 01:30:15;;;;;;;33.75;23.45;;;;;;;2.20;66.22;100994.84;1701205;83;21623;-72
2022/03/26 01:32:46;;;;;;;31.73;21.52;;;;;;;2.16;66.17;100992.28;1699281;83;21049;-73
2022/03/26 01:35:14;;;;;;;34.55;22.73;;;;;;;2.15;66.18;100991.98;1694567;83;21304;-73
2022/03/26 01:37:41;;;;;;;32.90;22.25;;;;;;;2.11;66.17;100984.97;1710317;83;21134;-72
2022/03/26 01:40:11;;;;;;;32.28;21.73;;;;;;;2.11;66.29;100988.92;1680137;83;21019;-73
2022/03/26 01:42:38;;;;;;;36.08;21.93;;;;;;;2.12;66.32;100988.41;1647744;85;21064;-73
2022/03/26 01:45:12;;;;;;;34.18;21.65;;;;;;;2.13;66.45;100987.91;1679762;84;21063;-73
2022/03/26 01:47:40;;;;;;;33.13;23.40;;;;;;;2.17;66.51;100992.59;1673316;83;21624;-73
2022/03/26 01:50:08;;;;;;;32.20;23.62;;;;;;;2.20;66.57;100988.77;1688461;83;21039;-72
2022/03/26 01:52:35;;;;;;;33.80;23.35;;;;;;;2.21;66.56;100987.78;1678147;83;21665;-72
2022/03/26 01:55:04;;;;;;;33.78;23.85;;;;;;;2.24;66.61;100983.45;1677300;84;21628;-72
2022/03/26 01:57:31;;;;;;;34.85;24.10;;;;;;;2.24;66.62;100980.81;1684489;83;21663;-72
2022/03/26 01:59:58;;;;;;;33.30;22.40;;;;;;;2.24;66.62;100982.13;1683116;83;21593;-72
2022/03/26 02:02:25;;;;;;;33.10;22.40;;;;;;;2.24;66.61;100974.22;1682278;83;21094;-72
2022/03/26 02:04:52;;;;;;;28.77;20.45;;;;;;;2.16;66.60;100973.03;1672811;83;21039;-72
2022/03/26 02:07:20;;;;;;;31.42;20.92;;;;;;;2.04;66.83;100974.88;1678208;84;21027;-72
2022/03/26 02:09:49;;;;;;;31.57;20.75;;;;;;;1.98;66.94;100973.52;1682724;83;21084;-72
2022/03/26 02:12:25;;;;;;;28.47;20.25;;;;;;;1.96;67.05;100972.87;1681063;84;22160;-73
2022/03/26 02:14:54;;;;;;;31.80;20.10;;;;;;;1.94;67.15;100962.54;1678811;83;21085;-72
2022/03/26 02:17:22;;;;;;;30.05;20.23;;;;;;;1.96;67.22;100956.56;1682981;84;21110;-73
2022/03/26 02:19:55;;;;;;;32.40;21.12;;;;;;;1.99;67.34;100957.50;1690185;83;21070;-74
2022/03/26 02:22:23;;;;;;;30.70;21.60;;;;;;;2.00;67.42;100953.84;1680452;84;21070;-74
2022/03/26 02:24:52;;;;;;;30.72;21.07;;;;;;;2.03;67.43;100949.52;1677178;83;20959;-73
2022/03/26 02:27:21;;;;;;;29.65;20.25;;;;;;;2.05;67.44;100940.94;1710886;83;21063;-74
2022/03/26 02:29:50;;;;;;;31.70;20.92;;;;;;;2.06;67.40;100939.91;1676164;83;21062;-72
2022/03/26 02:32:25;;;;;;;30.20;21.05;;;;;;;2.06;67.32;100938.59;1683122;83;21047;-72
2022/03/26 02:34:54;;;;;;;29.32;20.90;;;;;;;2.07;67.27;100938.09;1672409;84;20978;-72
2022/03/26 02:37:21;;;;;;;27.85;18.90;;;;;;;1.98;67.23;100932.17;1681306;83;21708;-73
2022/03/26 02:39:50;;;;;;;27.42;19.07;;;;;;;1.95;67.33;100930.42;1678521;83;21087;-72
2022/03/26 02:42:17;;;;;;;24.75;18.30;;;;;;;1.90;67.38;100932.80;1679583;83;21053;-72
2022/03/26 02:44:44;;;;;;;25.92;18.48;;;;;;;1.88;67.44;100932.49;1683239;84;21078;-72
2022/03/26 02:47:12;;;;;;;26.60;19.32;;;;;;;1.89;67.50;100935.94;1679877;83;21079;-72
2022/03/26 02:49:41;;;;;;;25.43;18.55;;;;;;;1.92;67.54;100933.44;1678608;83;21030;-73
2022/03/26 02:52:08;;;;;;;26.95;18.73;;;;;;;1.91;67.53;100929.15;1681314;84;21003;-73
2022/03/26 02:54:36;;;;;;;26.70;18.87;;;;;;;1.91;67.64;100929.15;1683835;83;21637;-74
2022/03/26 02:57:04;;;;;;;27.15;18.27;;;;;;;1.88;67.71;100929.86;1676943;84;21055;-72
2022/03/26 02:59:31;;;;;;;26.52;19.50;;;;;;;1.86;67.82;100924.47;1684406;83;20947;-72
2022/03/26 03:01:59;;;;;;;31.48;20.50;;;;;;;1.85;67.93;100917.07;1682339;84;21236;-72
2022/03/26 03:04:27;;;;;;;28.90;19.52;;;;;;;1.85;68.07;100919.70;1680303;84;21438;-73
2022/03/26 03:06:54;;;;;;;31.33;20.12;;;;;;;1.78;68.19;100918.84;1681197;84;21075;-72
2022/03/26 03:09:22;;;;;;;30.68;21.33;;;;;;;1.72;68.49;100910.89;1682394;83;21031;-73
2022/03/26 03:11:50;;;;;;;31.33;20.75;;;;;;;1.72;68.71;100913.52;1649935;84;21630;-72
2022/03/26 03:14:20;;;;;;;30.32;21.68;;;;;;;1.77;68.79;100910.61;1630268;87;21075;-73
2022/03/26 03:16:48;;;;;;;31.02;20.82;;;;;;;1.80;68.80;100905.47;1644893;85;21193;-73
2022/03/26 03:19:15;;;;;;;30.15;21.45;;;;;;;1.82;68.77;100894.25;1654272;85;21098;-73
2022/03/26 03:21:42;;;;;;;30.88;21.00;;;;;;;1.83;68.76;100894.55;1651677;84;21043;-72
2022/03/26 03:24:10;;;;;;;33.80;22.13;;;;;;;1.83;68.76;100892.73;1650364;86;21135;-73
2022/03/26 03:26:37;;;;;;;31.27;20.52;;;;;;;1.87;68.72;100881.30;1649867;85;21845;-72
2022/03/26 03:29:04;;;;;;;30.43;19.32;;;;;;;1.88;68.65;100882.45;1642903;85;21150;-74
2022/03/26 03:31:33;;;;;;;32.38;21.57;;;;;;;1.80;68.64;100877.81;1631492;85;21129;-73
2022/03/26 03:34:01;;;;;;;32.10;20.35;;;;;;;1.71;68.71;100873.69;1686227;83;21055;-73
2022/03/26 03:36:29;;;;;;;33.13;21.75;;;;;;;1.68;68.83;100872.27;1675827;83;21103;-74
2022/03/26 03:38:56;;;;;;;33.53;21.40;;;;;;;1.66;68.89;100874.77;1678723;84;21249;-74
2022/03/26 03:41:23;;;;;;;28.65;19.92;;;;;;;1.66;68.95;100872.14;1679166;83;21638;-74
2022/03/26 03:43:50;;;;;;;28.23;20.50;;;;;;;1.67;69.01;100871.13;1677333;83;21706;-72
2022/03/26 03:46:17;;;;;;;28.10;18.77;;;;;;;1.67;69.06;100869.81;1676662;84;21081;-72
2022/03/26 03:48:45;;;;;;;32.03;21.12;;;;;;;1.67;69.18;100869.81;1665037;84;21071;-73
2022/03/26 03:51:12;;;;;;;29.77;20.40;;;;;;;1.69;69.33;100866.50;1684346;83;21240;-73
2022/03/26 03:53:40;;;;;;;29.57;20.68;;;;;;;1.71;69.41;100863.16;1688491;83;20970;-72
2022/03/26 03:56:08;;;;;;;30.40;19.67;;;;;;;1.73;69.47;100861.96;1678593;84;21063;-72
2022/03/26 03:58:36;;;;;;;33.00;20.65;;;;;;;1.77;69.56;100853.98;1665182;86;21215;-72
2022/03/26 04:01:04;;;;;;;29.05;20.08;;;;;;;1.81;69.64;100850.46;1700032;83;21517;-72
2022/03/26 04:03:32;;;;;;;28.38;20.52;;;;;;;1.85;69.66;100851.73;1707899;82;21094;-73
2022/03/26 04:06:00;;;;;;;32.78;20.65;;;;;;;1.88;69.66;100850.84;1652011;84;21502;-72
2022/03/26 04:08:27;;;;;;;30.05;20.27;;;;;;;1.93;69.71;100847.61;1636561;87;21016;-73
2022/03/26 04:10:54;;;;;;;31.15;20.00;;;;;;;1.99;69.68;100838.95;1652961;85;21093;-72
2022/03/26 04:13:21;;;;;;;29.20;19.55;;;;;;;2.04;69.67;100839.67;1662323;84;21040;-72
2022/03/26 04:15:50;;;;;;;31.68;20.82;;;;;;;2.10;69.72;100845.48;1681707;84;21018;-72
2022/03/26 04:18:17;;;;;;;27.62;19.95;;;;;;;2.17;69.66;100840.25;1692215;84;21494;-72
2022/03/26 04:20:46;;;;;;;29.07;20.92;;;;;;;2.21;69.61;100834.92;1696555;83;21542;-73
2022/03/26 04:23:13;;;;;;;27.25;20.15;;;;;;;2.26;69.56;100835.95;1692764;83;21130;-73
2022/03/26 04:25:40;;;;;;;29.52;20.12;;;;;;;2.30;69.52;100835.05;1698879;84;21126;-73
2022/03/26 04:28:08;;;;;;;28.50;18.85;;;;;;;2.39;69.47;100841.79;1674683;84;21195;-72
2022/03/26 04:30:37;;;;;;;30.60;19.98;;;;;;;2.44;69.46;100835.95;1656789;84;21118;-72
2022/03/26 04:33:04;;;;;;;29.23;19.98;;;;;;;2.50;69.38;100839.93;1675680;83;21075;-73
2022/03/26 04:35:31;;;;;;;28.55;20.27;;;;;;;2.59;69.30;100829.50;1678037;83;21058;-72
2022/03/26 04:37:58;;;;;;;30.10;20.43;;;;;;;2.68;69.18;100815.64;1678349;84;21109;-73
2022/03/26 04:40:26;;;;;;;28.10;20.20;;;;;;;2.80;69.06;100814.56;1682425;83;21167;-73
2022/03/26 04:42:53;;;;;;;31.35;20.70;;;;;;;2.90;68.94;100811.55;1667622;83;21066;-71
2022/03/26 04:45:22;;;;;;;28.32;19.37;;;;;;;2.99;68.88;100801.89;1677837;83;21022;-72
2022/03/26 04:47:49;;;;;;;30.57;20.68;;;;;;;3.10;68.72;100795.75;1683907;84;21576;-72
2022/03/26 04:50:17;;;;;;;29.65;20.75;;;;;;;3.17;68.57;100796.55;1676404;84;21081;-72
2022/03/26 04:52:45;;;;;;;28.10;18.80;;;;;;;3.25;68.48;100797.16;1683814;83;21524;-72
2022/03/26 04:55:13;;;;;;;30.10;19.65;;;;;;;3.35;68.30;100794.62;1681128;83;21534;-72
2022/03/26 04:57:47;;;;;;;28.02;19.50;;;;;;;3.44;68.18;100787.61;1675269;83;21511;-72
2022/03/26 05:00:17;;;;;;;24.50;18.23;;;;;;;3.59;68.08;100787.92;1677961;83;21059;-72
2022/03/26 05:02:44;;;;;;;25.55;17.25;;;;;;;3.73;67.92;100783.72;1683677;83;21074;-72
2022/03/26 05:05:12;;;;;;;23.75;16.20;;;;;;;3.87;67.45;100781.05;1677375;83;21271;-73
2022/03/26 05:07:46;;;;;;;22.48;15.13;;;;;;;3.98;67.09;100773.31;1678081;84;21089;-72
2022/03/26 05:10:24;;;;;;;21.35;15.28;;;;;;;4.16;66.21;100775.27;1680321;84;21613;-73
2022/03/26 05:12:51;;;;;;;20.90;14.90;;;;;;;4.40;65.26;100765.80;1681910;83;21564;-72
2022/03/26 05:15:24;;;;;;;21.37;14.87;;;;;;;4.66;63.68;100766.69;1675205;84;21111;-72
2022/03/26 05:17:52;;;;;;;20.82;15.35;;;;;;;4.93;62.35;100767.33;1683783;83;21062;-74
2022/03/26 05:20:20;;;;;;;21.73;15.58;;;;;;;5.20;61.01;100765.32;1683405;84;21089;-73
2022/03/26 05:22:48;;;;;;;19.80;14.05;;;;;;;5.40;59.81;100758.53;1710090;83;20987;-73
2022/03/26 05:25:15;;;;;;;22.30;15.72;;;;;;;5.59;58.75;100750.91;1713538;83;21027;-74
2022/03/26 05:27:50;;;;;;;21.93;15.20;;;;;;;5.78;57.57;100761.51;1703500;83;21054;-74
2022/03/26 05:30:17;;;;;;;21.33;15.45;;;;;;;5.95;57.14;100760.44;1685886;83;21833;-74
2022/03/26 05:32:44;;;;;;;20.08;14.38;;;;;;;6.08;56.57;100762.41;1665620;84;20973;-73
2022/03/26 05:35:14;;;;;;;22.15;15.63;;;;;;;6.22;56.36;100759.61;1664802;84;20980;-74
2022/03/26 05:37:41;;;;;;;23.30;15.88;;;;;;;6.34;55.59;100755.17;1659241;85;21069;-73
2022/03/26 05:40:11;;;;;;;20.62;14.83;;;;;;;6.45;55.14;100750.95;1656924;85;20988;-73
2022/03/26 05:42:39;;;;;;;21.23;15.08;;;;;;;6.58;54.98;100741.48;1660425;84;21155;-74
2022/03/26 05:45:08;;;;;;;21.05;14.43;;;;;;;6.67;53.84;100738.80;1659832;84;21063;-73
2022/03/26 05:47:35;;;;;;;23.27;16.30;;;;;;;6.79;53.58;100739.65;1654197;84;21036;-74
2022/03/26 05:50:08;;;;;;;21.23;15.32;;;;;;;6.92;53.29;100739.17;1661132;84;21064;-73
2022/03/26 05:52:35;;;;;;;;;;;;;;;7.03;52.85;100731.72;1673129;83;21613;-72
2022/03/26 05:55:02;;;;;;;22.13;15.28;;;;;;;7.17;52.54;100727.00;1678283;83;21165;-73
2022/03/26 05:57:30;;;;;;;20.30;14.58;;;;;;;7.25;52.05;100728.00;1681913;83;21126;-74
2022/03/26 05:59:59;;;;;;;21.75;15.55;;;;;;;7.36;51.62;100705.13;1683326;83;21018;-74
2022/03/26 06:02:26;;;;;;;21.48;15.68;;;;;;;7.49;51.50;100714.19;1678424;83;21067;-74
2022/03/26 06:04:54;;;;;;;19.77;14.33;;;;;;;7.62;51.42;100709.15;1676927;84;21071;-73
2022/03/26 06:07:21;;;;;;;23.02;14.87;;;;;;;7.77;50.77;100700.17;1685813;83;21458;-73
2022/03/26 06:09:48;;;;;;;24.45;16.45;;;;;;;7.93;51.01;100690.63;1691737;83;21113;-73
2022/03/26 06:12:16;;;;;;;19.55;14.80;;;;;;;8.10;50.77;100686.20;1690091;83;21071;-74
2022/03/26 06:14:44;;;;;;;21.25;14.60;;;;;;;8.28;50.40;100679.86;1680200;84;20964;-74
2022/03/26 06:17:12;;;;;;;21.77;16.02;;;;;;;8.43;49.27;100685.50;1674565;84;21126;-74
2022/03/26 06:19:42;;;;;;;20.85;14.15;;;;;;;8.59;49.39;100689.77;1674932;83;21482;-74
2022/03/26 06:22:10;;;;;;;21.42;14.43;;;;;;;8.74;48.22;100679.36;1684278;83;21051;-74
2022/03/26 06:24:39;;;;;;;20.10;13.75;;;;;;;8.88;48.38;100674.02;1681319;84;21063;-72
2022/03/26 06:27:10;;;;;;;17.82;12.33;;;;;;;9.04;48.30;100675.03;1662734;84;21082;-73
2022/03/26 06:29:37;;;;;;;17.90;12.03;;;;;;;9.20;47.17;100668.60;1661682;84;21075;-74
2022/03/26 06:32:08;;;;;;;19.05;13.72;;;;;;;9.32;47.32;100658.13;1655309;85;21940;-73
2022/03/26 06:34:35;;;;;;;18.32;13.32;;;;;;;9.45;46.56;100659.62;1658628;85;21080;-74
2022/03/26 06:37:05;;;;;;;19.02;13.20;;;;;;;9.57;46.06;100653.63;1675539;83;21042;-73
2022/03/26 06:39:34;;;;;;;18.70;13.48;;;;;;;9.69;45.68;100654.05;1677907;84;21133;-73
2022/03/26 06:42:04;;;;;;;18.77;12.13;;;;;;;9.82;46.00;100647.81;1683516;83;21073;-73
2022/03/26 06:44:32;;;;;;;21.75;14.68;;;;;;;10.01;45.65;100641.62;1693286;84;21486;-74
2022/03/26 06:47:03;;;;;;;21.85;16.27;;;;;;;10.18;44.91;100632.71;1701602;83;21424;-73
2022/03/26 06:49:31;;;;;;;26.55;17.65;;;;;;;10.34;45.11;100625.16;1672412;83;21043;-72
2022/03/26 06:51:59;;;;;;;33.95;22.70;;;;;;;10.48;44.21;100628.20;1664215;85;21138;-74
2022/03/26 06:54:27;;;;;;;39.58;24.67;;;;;;;10.57;44.05;100620.01;1664312;85;21097;-73
2022/03/26 06:56:55;;;;;;;41.70;28.50;;;;;;;10.68;44.08;100622.22;1652987;84;21212;-72
2022/03/26 06:59:23;;;;;;;43.68;29.25;;;;;;;10.78;43.29;100615.61;1687797;84;20931;-73
2022/03/26 07:01:52;;;;;;;41.18;27.87;;;;;;;10.85;43.55;100612.72;1688402;83;21031;-74
2022/03/26 07:04:19;;;;;;;38.48;24.90;;;;;;;10.94;43.49;100615.19;1681439;83;21061;-74
2022/03/26 07:06:47;;;;;;;33.83;22.77;;;;;;;11.07;42.82;100617.94;1665847;84;21117;-74
2022/03/26 07:09:14;;;;;;;35.50;24.32;;;;;;;11.16;42.60;100608.38;1708006;83;21758;-73
2022/03/26 07:11:45;;;;;;;36.28;23.05;;;;;;;11.25;42.68;100600.11;1678352;84;21052;-73
2022/03/26 07:14:12;;;;;;;37.63;24.25;;;;;;;11.36;42.31;100589.75;1670913;84;21062;-73
2022/03/26 07:16:44;;;;;;;32.48;22.60;;;;;;;11.44;41.96;100589.23;1678701;83;21027;-73
2022/03/26 07:19:11;;;;;;;36.08;23.67;;;;;;;11.53;41.70;100595.44;1683456;83;21115;-73
2022/03/26 07:21:40;;;;;;;32.30;21.80;;;;;;;11.62;41.88;100586.64;1684491;83;21248;-74
2022/03/26 07:24:15;;;;;;;29.87;20.05;;;;;;;11.80;41.66;100582.66;1689134;83;22525;-73
2022/03/26 07:26:44;;;;;;;29.18;18.87;;;;;;;11.99;41.20;100585.69;1636660;85;21117;-75
2022/03/26 07:29:11;;;;;;;27.45;17.90;;;;;;;12.20;40.85;100574.45;1633829;87;21107;-74
2022/03/26 07:31:40;;;;;;;26.80;17.75;;;;;;;12.41;40.49;100567.24;1651395;84;21663;-72
2022/03/26 07:34:07;;;;;;;26.97;17.98;;;;;;;12.61;39.89;100562.40;1651395;85;21380;-73
2022/03/26 07:36:35;;;;;;;27.10;17.37;;;;;;;12.77;39.37;100563.98;1648515;85;21086;-73
2022/03/26 07:39:03;;;;;;;25.77;17.12;;;;;;;12.95;39.29;100556.43;1647424;86;21192;-74
2022/03/26 07:41:30;;;;;;;25.67;16.63;;;;;;;13.06;38.23;100557.48;1661226;86;21031;-74
2022/03/26 07:43:57;;;;;;;23.73;16.17;;;;;;;13.13;37.70;100555.30;1658309;86;21824;-73
2022/03/26 07:46:25;;;;;;;23.03;16.17;;;;;;;13.23;37.54;100555.01;1650730;85;21695;-78
2022/03/26 07:48:52;;;;;;;23.50;15.73;;;;;;;13.33;36.89;100545.06;1651272;85;22033;-75
2022/03/26 07:51:20;;;;;;;25.27;16.67;;;;;;;13.44;36.47;100531.05;1650435;85;21445;-72
2022/03/26 07:53:47;;;;;;;23.47;14.70;;;;;;;13.59;36.67;100534.20;1646464;86;21250;-74
2022/03/26 07:56:14;;;;;;;23.33;15.07;;;;;;;13.72;36.05;100536.78;1652744;85;21718;-72
2022/03/26 07:58:42;;;;;;;23.60;14.23;;;;;;;13.80;35.42;100510.70;1654442;85;21550;-74
2022/03/26 08:01:10;;;;;;;24.17;15.10;;;;;;;13.88;34.90;100518.16;1645429;86;21612;-73
2022/03/26 08:03:37;;;;;;;23.07;14.57;;;;;;;13.94;34.15;100508.98;1650650;86;21353;-73
2022/03/26 08:06:05;;;;;;;22.90;14.17;;;;;;;14.03;34.13;100510.54;1648190;86;21381;-72
2022/03/26 08:08:33;;;;;;;20.93;13.77;;;;;;;14.15;34.72;100509.64;1652853;85;21258;-78
2022/03/26 08:11:02;;;;;;;19.00;13.40;;;;;;;14.22;33.27;100518.17;1636553;86;21322;-73
2022/03/26 08:13:30;;;;;;;21.77;13.50;;;;;;;14.33;33.69;100483.95;1645477;85;21319;-75
2022/03/26 08:15:59;;;;;;;23.93;14.53;;;;;;;14.42;33.16;100481.45;1648978;86;21226;-73
2022/03/26 08:18:26;;;;;;;21.40;13.57;;;;;;;14.50;33.18;100475.44;1656785;84;21103;-73
2022/03/26 08:20:54;;;;;;;22.67;14.17;;;;;;;14.56;32.57;100450.14;1653925;84;21194;-74
2022/03/26 08:23:21;;;;;;;20.77;13.53;;;;;;;14.66;32.29;100482.29;1655553;85;21259;-73
2022/03/26 08:28:34;;;;;;;20.83;13.53;;;;;;;14.66;32.27;100442.52;1651597;86;22093;-74
2022/03/26 08:31:03;;;;;;;21.03;12.60;;;;;;;14.71;32.36;100453.22;1652521;84;21397;-74
2022/03/26 08:33:30;;;;;;;21.90;14.50;;;;;;;14.81;32.43;100448.23;1648720;86;21333;-75
2022/03/26 08:35:58;;;;;;;25.17;14.13;;;;;;;14.93;32.14;100460.73;1644287;85;21290;-75
2022/03/26 08:38:25;;;;;;;23.03;13.90;;;;;;;15.02;32.15;100438.84;1649939;86;21649;-75
2022/03/26 08:40:53;;;;;;;23.27;14.10;;;;;;;15.07;32.14;100432.06;1646746;86;21218;-73
2022/03/26 08:43:20;;;;;;;25.00;14.47;;;;;;;15.10;32.23;100430.66;1644282;86;21376;-75
2022/03/26 08:45:47;;;;;;;24.70;14.70;;;;;;;15.09;31.92;100440.62;1648371;86;21408;-74
2022/03/26 08:48:15;;;;;;;22.93;14.17;;;;;;;15.09;32.13;100436.58;1661042;84;21342;-74
2022/03/26 08:50:43;;;;;;;26.43;15.90;;;;;;;15.08;32.13;100426.92;1645765;85;21344;-73
2022/03/26 08:53:11;;;;;;;24.10;14.03;;;;;;;15.06;32.53;100418.88;1669017;84;21370;-74
2022/03/26 08:55:38;;;;;;;24.10;15.43;;;;;;;15.06;32.16;100416.98;1703768;83;21284;-73
2022/03/26 08:58:07;;;;;;;27.70;15.80;;;;;;;15.13;32.15;100406.66;1700161;83;21264;-77
2022/03/26 09:00:36;;;;;;;26.73;16.00;;;;;;;15.22;31.73;100417.03;1693103;84;21936;-73
2022/03/26 09:03:03;;;;;;;23.07;14.70;;;;;;;15.34;31.76;100403.70;1697937;81;21339;-73
2022/03/26 09:05:31;;;;;;;27.23;15.93;;;;;;;15.46;31.69;100408.06;1713134;83;21775;-75
2022/03/26 09:07:58;;;;;;;26.87;15.47;;;;;;;15.67;31.29;100401.86;1692694;84;21956;-76
2022/03/26 09:10:26;;;;;;;24.53;15.63;;;;;;;15.67;31.29;100401.86;1692864;84;21532;-74
2022/03/26 09:12:54;;;;;;;23.90;15.13;;;;;;;15.73;30.76;100386.39;1692964;84;21363;-75
2022/03/26 09:15:22;;;;;;;21.13;13.70;;;;;;;15.79;30.14;100372.55;1692856;84;37644;-78
2022/03/26 09:17:49;;;;;;;21.73;13.70;;;;;;;15.85;29.57;100390.77;1703524;83;21502;-76
2022/03/26 09:20:18;;;;;;;21.63;12.93;;;;;;;15.97;30.01;100384.38;1707426;82;22181;-75
2022/03/26 09:22:45;;;;;;;21.07;13.10;;;;;;;15.97;31.18;100356.64;1706884;83;21902;-74
2022/03/26 09:25:16;;;;;;;21.70;13.37;;;;;;;16.05;31.86;100341.91;1702751;82;21950;-74
2022/03/26 09:27:43;;;;;;;20.57;12.80;;;;;;;16.09;31.73;100351.02;1716411;82;21525;-75
2022/03/26 09:30:11;;;;;;;20.90;13.30;;;;;;;16.13;32.10;100342.58;1699731;83;22102;-74
2022/03/26 09:32:39;;;;;;;21.20;13.83;;;;;;;16.13;32.10;100342.58;1693765;83;22046;-74
2022/03/26 09:35:07;;;;;;;21.70;12.90;;;;;;;16.20;32.54;100350.27;1699762;83;21845;-73
2022/03/26 09:37:34;;;;;;;24.33;13.70;;;;;;;16.33;32.96;100306.89;1692654;84;21983;-72
2022/03/26 09:40:04;;;;;;;21.60;14.00;;;;;;;16.19;33.17;100316.34;1693110;83;21776;-74
2022/03/26 09:42:33;;;;;;;22.90;13.60;;;;;;;16.19;33.17;100316.34;1692153;84;22343;-74
2022/03/26 09:45:03;;;;;;;18.77;13.33;;;;;;;16.18;33.82;100302.59;1660967;86;21805;-73
2022/03/26 09:47:30;;;;;;;21.77;13.77;;;;;;;16.17;34.09;100268.13;1645258;87;21608;-75
2022/03/26 09:49:58;;;;;;;23.20;14.87;;;;;;;16.11;34.49;100303.00;1638469;87;21787;-75
2022/03/26 09:52:25;;;;;;;23.10;14.10;;;;;;;16.07;35.02;100275.63;1622456;85;21544;-74
2022/03/26 09:54:54;;;;;;;18.80;13.37;;;;;;;16.02;34.42;100267.63;1656778;85;21536;-75
2022/03/26 09:57:22;;;;;;;21.60;14.03;;;;;;;16.02;34.42;100267.63;1638232;86;22217;-74
2022/03/26 09:59:50;;;;;;;21.30;12.97;;;;;;;16.07;34.66;100280.45;1660982;86;21713;-73
2022/03/26 10:02:17;;;;;;;21.73;13.03;;;;;;;16.18;34.91;100291.82;1660739;85;21542;-75
2022/03/26 10:04:45;;;;;;;21.00;12.67;;;;;;;16.29;34.75;100266.83;1643367;87;22446;-74
2022/03/26 10:07:12;;;;;;;18.37;11.83;;;;;;;16.36;34.87;100242.95;1650394;86;21867;-73
2022/03/26 10:09:46;;;;;;;17.57;12.27;;;;;;;16.80;34.24;100234.69;1633377;87;21747;-72
2022/03/26 10:12:19;;;;;;;19.23;11.13;;;;;;;16.80;34.24;100234.69;1648037;86;21654;-76
2022/03/26 10:14:57;;;;;;;19.33;12.53;;;;;;;16.98;33.62;100243.16;1662249;86;21892;-74
2022/03/26 10:17:35;;;;;;;19.20;11.73;;;;;;;17.03;33.45;100234.93;1660453;86;21809;-74
2022/03/26 10:20:10;;;;;;;15.13;10.97;;;;;;;17.13;33.39;100206.89;1635643;87;22397;-74
2022/03/26 10:22:50;;;;;;;16.20;11.13;;;;;;;17.13;33.39;100206.89;1637634;86;21881;-75
2022/03/26 10:25:21;;;;;;;15.80;10.57;;;;;;;17.24;33.33;100223.61;1633382;87;21831;-77
2022/03/26 10:27:51;;;;;;;16.37;11.43;;;;;;;17.37;32.96;100197.08;1632942;87;21799;-73
2022/03/26 10:32:38;;;;;;;16.63;11.00;;;;;;;17.45;33.07;100169.90;1634824;86;21093;-73
2022/03/26 10:32:50;;;;;;;21.02;11.90;;;;;;;17.44;32.76;100175.03;1639680;86;23965;-76
2022/03/26 10:35:21;;;;;;;15.23;11.30;;;;;;;17.47;32.76;100145.53;1635276;86;21429;-76
2022/03/26 10:37:59;;;;;;;17.75;11.43;;;;;;;17.49;32.88;100193.81;1637440;87;22287;-73
2022/03/26 10:40:36;;;;;;;17.20;10.80;;;;;;;17.56;33.08;100156.34;1636662;87;21154;-76
2022/03/26 10:43:13;;;;;;;20.07;11.50;;;;;;;17.73;32.95;100156.94;1674276;84;21774;-76
2022/03/26 10:45:52;;;;;;;16.20;9.63;;;;;;;17.66;32.76;100162.01;1686843;83;21827;-76
2022/03/26 10:48:29;;;;;;;17.40;9.20;;;;;;;17.75;32.51;100142.58;1675886;84;22293;-75
2022/03/26 10:51:02;;;;;;;17.30;8.93;;;;;;;17.67;31.75;100120.38;1677288;83;21785;-74
2022/03/26 10:53:46;;;;;;;20.50;9.63;;;;;;;17.64;31.96;100138.03;1685990;83;21757;-75
2022/03/26 10:56:15;;;;;;;17.83;8.90;;;;;;;17.74;31.63;100125.58;1677301;84;21807;-75
2022/03/26 10:58:44;;;;;;;17.90;8.20;;;;;;;17.76;31.67;100108.51;1681864;84;22188;-75
2022/03/26 11:01:12;;;;;;;15.10;7.87;;;;;;;17.78;31.94;100090.09;1669376;84;21754;-76
2022/03/26 11:03:44;;;;;;;16.50;7.90;;;;;;;17.80;32.06;100081.13;1674287;84;22341;-76
2022/03/26 11:06:13;;;;;;;13.18;7.65;;;;;;;17.80;32.06;100081.13;1668216;85;21063;-76
2022/03/26 11:08:41;;;;;;;19.70;8.27;;;;;;;17.81;32.33;100091.37;1673797;85;21495;-75
2022/03/26 11:11:09;;;;;;;17.77;6.97;;;;;;;17.75;31.89;100076.39;1670741;84;21851;-76
2022/03/26 11:13:49;;;;;;;19.47;7.93;;;;;;;17.62;31.28;100048.97;1691284;84;21799;-75
2022/03/26 11:16:27;;;;;;;18.03;7.17;;;;;;;17.48;31.42;100059.36;1671480;84;22100;-77
2022/03/26 11:19:19;;;;;;;14.60;7.13;;;;;;;17.38;31.36;100066.41;1686071;84;21786;-74
2022/03/26 11:22:07;;;;;;;15.47;7.00;;;;;;;17.31;31.51;100109.27;1681232;83;22247;-75
2022/03/26 11:24:48;;;;;;;16.80;6.90;;;;;;;17.31;31.66;100022.89;1682762;84;21831;-73